Time;durP1;ratioP1;P1;durP2;ratioP2;P2;SDS_P1;SDS_P2;PMS_P1;PMS_P2;Temp;Humidity;BMP_temperature;BMP_pressure;BME280_temperature;BME280_humidity;BME280_pressure;Samples;Min_cycle;Max_cycle;Signal;HPM_P1;HPM_P2
2023/07/12 00:00:14;;;;;;;11.60;4.70;;;;;;;-145.69;nan;51814.66;5075541;28;20227;-81
2023/07/12 00:02:40;;;;;;;16.48;5.70;;;;;;;-145.69;nan;51850.31;5075456;28;20202;-81
2023/07/12 00:05:09;;;;;;;14.68;5.05;;;;;;;-145.69;nan;51781.00;5075022;28;20555;-80
2023/07/12 00:07:37;;;;;;;14.80;5.88;;;;;;;-145.69;nan;51808.72;5075272;28;20248;-80
2023/07/12 00:10:12;;;;;;;11.48;5.03;;;;;;;-145.69;nan;51814.66;5075717;28;20199;-81
2023/07/12 00:12:38;;;;;;;16.35;5.63;;;;;;;-145.69;nan;51818.63;5075362;28;20542;-79
2023/07/12 00:15:06;;;;;;;10.80;5.28;;;;;;;-145.69;nan;51814.66;5074795;28;20285;-79
2023/07/12 00:17:32;;;;;;;7.90;4.40;;;;;;;-145.69;nan;51798.81;5075276;28;20561;-79
2023/07/12 00:19:59;;;;;;;13.68;4.93;;;;;;;-145.69;nan;51822.59;5074808;28;20227;-80
2023/07/12 00:22:25;;;;;;;13.25;5.03;;;;;;;-145.69;nan;51816.66;5075286;28;20203;-80
2023/07/12 00:24:53;;;;;;;12.00;5.10;;;;;;;-145.69;nan;51806.75;5075082;28;20199;-80
2023/07/12 00:27:20;;;;;;;11.95;5.82;;;;;;;-145.69;nan;51838.44;5074895;28;20202;-80
2023/07/12 00:29:46;;;;;;;12.57;5.07;;;;;;;-145.69;nan;51812.69;5074988;28;20202;-80
2023/07/12 00:32:13;;;;;;;11.00;4.45;;;;;;;-145.69;nan;51844.38;5074697;28;20198;-81
2023/07/12 00:34:39;;;;;;;9.73;4.80;;;;;;;-145.69;nan;51842.38;5073079;28;20256;-82
2023/07/12 00:37:11;;;;;;;8.35;3.92;;;;;;;-145.69;nan;51820.59;5075003;28;20229;-81
2023/07/12 00:39:38;;;;;;;7.10;4.00;;;;;;;-145.69;nan;51858.22;5074664;28;20784;-81
2023/07/12 00:42:11;;;;;;;8.38;3.95;;;;;;;-145.69;nan;51852.28;5074793;28;20209;-83
2023/07/12 00:44:45;;;;;;;14.25;5.10;;;;;;;-145.69;nan;51830.50;5054721;28;20655;-80
2023/07/12 00:47:14;;;;;;;9.13;4.47;;;;;;;-145.69;nan;51824.56;5054908;28;20196;-80
2023/07/12 00:49:41;;;;;;;14.10;4.85;;;;;;;-145.69;nan;51838.44;5054754;28;20203;-79
2023/07/12 00:52:13;;;;;;;9.85;4.10;;;;;;;-145.69;nan;51852.28;5067798;28;20227;-80
2023/07/12 00:54:53;;;;;;;8.80;4.95;;;;;;;-145.69;nan;51846.34;5074692;28;20203;-80
2023/07/12 00:57:21;;;;;;;12.57;4.90;;;;;;;-145.69;nan;51824.56;5074490;28;20256;-80
2023/07/12 00:59:47;;;;;;;9.95;4.53;;;;;;;-145.69;nan;51860.22;5074368;28;20685;-81
2023/07/12 01:02:15;;;;;;;13.40;4.97;;;;;;;-145.69;nan;51834.47;5074111;28;20198;-81
2023/07/12 01:04:46;;;;;;;12.85;5.10;;;;;;;-145.69;nan;51852.28;5074090;28;20210;-80
2023/07/12 01:07:14;;;;;;;11.88;4.88;;;;;;;-145.69;nan;51878.03;5074084;28;20252;-80
2023/07/12 01:09:40;;;;;;;14.23;5.18;;;;;;;-145.69;nan;51832.50;5074301;28;20209;-80
2023/07/12 01:12:07;;;;;;;10.52;5.32;;;;;;;-145.69;nan;51832.50;5073703;28;20198;-80
2023/07/12 01:14:35;;;;;;;16.02;6.05;;;;;;;-145.69;nan;51828.53;5072310;28;20662;-80
2023/07/12 01:17:04;;;;;;;15.95;5.95;;;;;;;-145.69;nan;51842.38;5054058;28;20688;-80
2023/07/12 01:19:32;;;;;;;13.68;5.75;;;;;;;-145.69;nan;51862.19;5053940;28;20207;-80
2023/07/12 01:22:00;;;;;;;16.88;6.50;;;;;;;-145.69;nan;51842.38;5065244;28;20199;-80
2023/07/12 01:24:30;;;;;;;14.13;6.63;;;;;;;-145.69;nan;51836.44;5074026;28;20229;-79
2023/07/12 01:27:00;;;;;;;13.30;6.35;;;;;;;-145.69;nan;51850.31;5073969;28;20190;-80
2023/07/12 01:29:28;;;;;;;16.00;6.65;;;;;;;-145.69;nan;51870.13;5073933;28;20202;-80
2023/07/12 01:31:55;;;;;;;19.48;7.10;;;;;;;-145.69;nan;51854.28;5073069;28;20269;-80
2023/07/12 01:34:24;;;;;;;16.77;6.15;;;;;;;-145.69;nan;51846.34;5073892;28;20207;-79
2023/07/12 01:36:50;;;;;;;25.63;6.72;;;;;;;-145.69;nan;51834.47;5073646;28;20198;-80
2023/07/12 01:39:18;;;;;;;9.43;5.63;;;;;;;-145.69;nan;51874.06;5070322;28;20202;-79
2023/07/12 01:41:45;;;;;;;12.43;5.75;;;;;;;-145.69;nan;51870.13;5073500;28;20222;-79
2023/07/12 01:44:11;;;;;;;15.40;6.43;;;;;;;-145.69;nan;51878.03;5073539;28;20657;-80
2023/07/12 01:46:37;;;;;;;15.35;6.15;;;;;;;-145.69;nan;51842.38;5073048;28;20202;-80
2023/07/12 01:49:04;;;;;;;15.40;5.80;;;;;;;-145.69;nan;51838.44;5073483;28;20203;-80
2023/07/12 01:51:30;;;;;;;11.93;5.30;;;;;;;-145.69;nan;51856.25;5073197;28;20257;-80
2023/07/12 01:53:57;;;;;;;14.70;5.57;;;;;;;-145.69;nan;51834.47;5073385;28;20225;-81
2023/07/12 01:56:25;;;;;;;18.15;6.00;;;;;;;-145.69;nan;51868.13;5073535;28;20546;-80
2023/07/12 01:58:51;;;;;;;10.30;5.57;;;;;;;-145.69;nan;51878.03;5073373;28;20210;-80
2023/07/12 02:01:19;;;;;;;10.13;5.07;;;;;;;-145.69;nan;51878.03;5072952;28;20313;-80
2023/07/12 02:03:45;;;;;;;11.10;5.78;;;;;;;-145.69;nan;51874.06;5073279;28;20211;-80
2023/07/12 02:06:12;;;;;;;13.00;5.22;;;;;;;-145.69;nan;51858.22;5073081;28;20202;-81
2023/07/12 02:08:38;;;;;;;11.90;4.80;;;;;;;-145.69;nan;51854.28;5073030;28;20214;-80
2023/07/12 02:11:05;;;;;;;19.10;6.32;;;;;;;-145.69;nan;51866.16;5073030;28;20201;-79
2023/07/12 02:13:32;;;;;;;12.90;5.43;;;;;;;-145.69;nan;51876.06;5073413;28;20210;-80
2023/07/12 02:15:59;;;;;;;10.98;5.30;;;;;;;-145.69;nan;51850.31;5072764;28;20565;-80
2023/07/12 02:18:25;;;;;;;13.32;5.57;;;;;;;-145.69;nan;51864.16;5072852;28;20210;-80
2023/07/12 02:20:52;;;;;;;14.82;6.20;;;;;;;-145.69;nan;51850.31;5072883;28;20719;-80
2023/07/12 02:23:18;;;;;;;18.13;6.30;;;;;;;-145.69;nan;51862.19;5073048;28;20199;-81
2023/07/12 02:25:45;;;;;;;13.07;5.95;;;;;;;-145.69;nan;51883.97;5072622;28;20666;-81
2023/07/12 02:28:11;;;;;;;14.85;5.20;;;;;;;-145.69;nan;51852.28;5072827;28;20661;-81
2023/07/12 02:30:43;;;;;;;13.70;5.28;;;;;;;-145.69;nan;51828.53;5072917;28;20199;-80
2023/07/12 02:33:09;;;;;;;16.65;6.40;;;;;;;-145.69;nan;51864.16;5072602;28;20206;-82
2023/07/12 02:35:40;;;;;;;9.55;5.82;;;;;;;-145.69;nan;51832.50;5072777;28;20198;-80
2023/07/12 02:38:06;;;;;;;13.38;5.53;;;;;;;-145.69;nan;51883.97;5085009;28;20619;-81
2023/07/12 02:40:33;;;;;;;15.02;5.10;;;;;;;-145.69;nan;51862.19;5072676;28;20624;-80
2023/07/12 02:42:59;;;;;;;12.45;5.75;;;;;;;-145.69;nan;51864.16;5072697;28;20213;-81
2023/07/12 02:45:26;;;;;;;11.70;5.05;;;;;;;-145.69;nan;51834.47;5072766;28;20205;-82
2023/07/12 02:47:53;;;;;;;11.93;4.82;;;;;;;-145.69;nan;51842.38;5072780;28;20199;-81
2023/07/12 02:50:20;;;;;;;12.18;5.55;;;;;;;-145.69;nan;51864.16;5072507;28;20203;-81
2023/07/12 02:52:48;;;;;;;10.40;5.60;;;;;;;-145.69;nan;51850.31;5072805;28;20202;-81
2023/07/12 02:55:15;;;;;;;13.45;5.57;;;;;;;-145.69;nan;51864.16;5072748;28;20198;-83
2023/07/12 02:57:41;;;;;;;14.48;5.22;;;;;;;-145.69;nan;51850.31;5072864;28;20199;-82
2023/07/12 03:00:09;;;;;;;9.07;4.47;;;;;;;-145.69;nan;51840.41;5076704;28;20213;-83
2023/07/12 03:02:35;;;;;;;8.45;3.90;;;;;;;-145.69;nan;51862.19;5076348;28;20202;-83
2023/07/12 03:05:04;;;;;;;8.10;3.67;;;;;;;-145.69;nan;51830.50;5076704;28;20653;-81
2023/07/12 03:07:30;;;;;;;11.82;3.67;;;;;;;-145.69;nan;51858.22;5076813;28;20210;-84
2023/07/12 03:09:57;;;;;;;7.57;3.72;;;;;;;-145.69;nan;51854.28;5076604;28;20199;-84
2023/07/12 03:12:24;;;;;;;12.52;4.03;;;;;;;-145.69;nan;51826.56;5076748;28;20211;-83
2023/07/12 03:14:52;;;;;;;9.32;4.15;;;;;;;-145.69;nan;51828.53;5076284;28;20198;-84
2023/07/12 03:17:18;;;;;;;15.98;4.47;;;;;;;-145.69;nan;51866.16;5075568;28;20199;-81
2023/07/12 03:19:45;;;;;;;7.30;3.75;;;;;;;-145.69;nan;51866.16;5076212;28;20190;-84
2023/07/12 03:22:13;;;;;;;9.50;4.22;;;;;;;-145.69;nan;51854.28;5075996;28;20234;-84
2023/07/12 03:24:39;;;;;;;10.63;3.72;;;;;;;-145.69;nan;51868.13;5076394;28;20199;-82
2023/07/12 03:27:06;;;;;;;10.65;4.43;;;;;;;-145.69;nan;51850.31;5075861;28;20294;-81
2023/07/12 03:29:32;;;;;;;7.95;3.45;;;;;;;-145.69;nan;51848.34;5076033;28;20202;-82
2023/07/12 03:31:59;;;;;;;14.00;5.07;;;;;;;-145.69;nan;51862.19;5075895;28;20201;-83
2023/07/12 03:34:25;;;;;;;10.80;3.75;;;;;;;-145.69;nan;51826.56;5076279;28;20218;-82
2023/07/12 03:36:52;;;;;;;8.00;3.78;;;;;;;-145.69;nan;51838.44;5075997;28;20205;-83
2023/07/12 03:39:19;;;;;;;9.82;3.88;;;;;;;-145.69;nan;51828.53;5075875;28;20680;-82
2023/07/12 03:41:46;;;;;;;9.90;4.10;;;;;;;-145.69;nan;51830.50;5075508;28;20234;-83
2023/07/12 03:44:12;;;;;;;7.97;3.35;;;;;;;-145.69;nan;51858.22;5063690;28;20203;-83
2023/07/12 03:46:39;;;;;;;7.70;3.45;;;;;;;-145.69;nan;51824.56;5062279;28;20277;-84
2023/07/12 03:49:05;;;;;;;9.43;4.13;;;;;;;-145.69;nan;51834.47;5075896;28;20203;-83
2023/07/12 03:51:35;;;;;;;11.00;3.92;;;;;;;-145.69;nan;51858.22;5074881;28;20241;-83
2023/07/12 03:54:01;;;;;;;7.75;4.13;;;;;;;-145.69;nan;51808.72;5074582;28;20207;-83
2023/07/12 03:56:29;;;;;;;12.60;4.25;;;;;;;-145.69;nan;51826.56;5074414;28;20203;-83
2023/07/12 03:58:56;;;;;;;7.95;3.90;;;;;;;-145.69;nan;51830.50;5074856;28;20203;-83
2023/07/12 04:01:22;;;;;;;10.05;4.82;;;;;;;-145.69;nan;51820.59;5074467;28;20697;-82
2023/07/12 04:03:49;;;;;;;11.75;5.20;;;;;;;-145.69;nan;51860.22;5074497;28;20206;-83
2023/07/12 04:06:17;;;;;;;7.53;4.10;;;;;;;-145.69;nan;51824.56;5074226;28;20207;-82
2023/07/12 04:08:43;;;;;;;8.02;3.60;;;;;;;-145.69;nan;51844.38;5073775;28;20194;-82
2023/07/12 04:11:23;;;;;;;9.10;4.00;;;;;;;-145.69;nan;51816.66;5073732;28;20202;-82
2023/07/12 04:13:52;;;;;;;9.80;3.97;;;;;;;-145.69;nan;51824.56;5073963;28;20199;-82
2023/07/12 04:16:19;;;;;;;8.35;4.00;;;;;;;-145.69;nan;51818.63;5073979;28;20647;-82
2023/07/12 04:18:45;;;;;;;8.88;3.95;;;;;;;-145.69;nan;51816.66;5073965;28;20198;-82
2023/07/12 04:21:16;;;;;;;8.75;3.97;;;;;;;-145.69;nan;51820.59;5073432;28;20753;-82
2023/07/12 04:23:43;;;;;;;6.80;3.95;;;;;;;-145.69;nan;51822.59;5073943;28;20194;-81
2023/07/12 04:26:10;;;;;;;10.27;3.78;;;;;;;-145.69;nan;51806.75;5074008;28;20554;-82
2023/07/12 04:28:38;;;;;;;10.75;4.45;;;;;;;-145.69;nan;51830.50;5074181;28;20199;-82
2023/07/12 04:31:10;;;;;;;9.32;4.13;;;;;;;-145.69;nan;51826.56;5074061;28;20592;-83
2023/07/12 04:33:37;;;;;;;8.88;3.88;;;;;;;-145.69;nan;51830.50;5073254;28;20230;-82
2023/07/12 04:36:05;;;;;;;14.18;5.00;;;;;;;-145.69;nan;51838.44;5073895;28;20528;-82
2023/07/12 04:38:32;;;;;;;12.20;4.95;;;;;;;-145.69;nan;51816.66;5073587;28;20207;-82
2023/07/12 04:40:58;;;;;;;10.52;4.82;;;;;;;-145.69;nan;51850.31;5074071;28;20230;-83
2023/07/12 04:43:25;;;;;;;10.33;5.53;;;;;;;-145.69;nan;51842.38;5073452;28;21026;-82
2023/07/12 04:45:52;;;;;;;10.80;4.85;;;;;;;-145.69;nan;51808.72;5073734;28;20449;-83
2023/07/12 04:48:20;;;;;;;12.40;5.30;;;;;;;-145.69;nan;51852.28;5073303;28;20240;-82
2023/07/12 04:50:51;;;;;;;8.85;5.22;;;;;;;-145.69;nan;51834.47;5034781;28;1100691;-82
2023/07/12 04:53:17;;;;;;;14.93;5.30;;;;;;;-145.69;nan;51832.50;5074761;28;20570;-83
2023/07/12 04:55:44;;;;;;;11.10;5.50;;;;;;;-145.69;nan;51834.47;5074469;28;20290;-82
2023/07/12 04:58:10;;;;;;;10.73;5.55;;;;;;;-145.69;nan;51844.38;5074541;28;20203;-83
2023/07/12 05:00:37;;;;;;;13.05;5.20;;;;;;;-145.69;nan;51818.63;5074521;28;20209;-83
2023/07/12 05:03:04;;;;;;;9.73;5.10;;;;;;;-145.69;nan;51834.47;5074097;28;20199;-82
2023/07/12 05:05:32;;;;;;;12.98;6.38;;;;;;;-145.69;nan;51838.44;5074346;28;20205;-82
2023/07/12 05:07:58;;;;;;;14.35;5.43;;;;;;;-145.69;nan;51842.38;5073916;28;20210;-81
2023/07/12 05:10:24;;;;;;;11.57;5.30;;;;;;;-145.69;nan;51814.66;5074241;28;20278;-82
2023/07/12 05:12:51;;;;;;;8.40;5.63;;;;;;;-145.69;nan;51828.53;5073567;28;20199;-82
2023/07/12 05:15:18;;;;;;;11.65;5.80;;;;;;;-145.69;nan;51846.34;5073930;28;20198;-82
2023/07/12 05:17:45;;;;;;;14.68;6.10;;;;;;;-145.69;nan;51826.56;5073971;28;20203;-82
2023/07/12 05:20:13;;;;;;;11.93;6.60;;;;;;;-145.69;nan;51864.16;5073459;28;20221;-82
2023/07/12 05:22:41;;;;;;;16.92;6.93;;;;;;;-145.69;nan;51836.44;5073370;28;20226;-82
2023/07/12 05:25:08;;;;;;;14.30;6.60;;;;;;;-145.69;nan;51848.34;5074143;28;20199;-81
2023/07/12 05:27:36;;;;;;;10.88;6.07;;;;;;;-145.69;nan;51812.69;5074009;28;20203;-82
2023/07/12 05:30:03;;;;;;;10.30;6.10;;;;;;;-145.69;nan;51814.66;5073858;28;20264;-83
2023/07/12 05:32:30;;;;;;;17.10;7.07;;;;;;;-145.69;nan;51806.75;5073481;28;20210;-83
2023/07/12 05:34:56;;;;;;;9.20;6.25;;;;;;;-145.69;nan;51828.53;5073943;28;20194;-83
2023/07/12 05:37:23;;;;;;;10.60;5.90;;;;;;;-145.69;nan;51808.72;5073713;28;20206;-82
2023/07/12 05:39:51;;;;;;;11.52;6.43;;;;;;;-145.69;nan;51824.56;5073522;28;20234;-82
2023/07/12 05:42:17;;;;;;;9.25;5.78;;;;;;;-145.69;nan;51792.88;5073096;28;20218;-82
2023/07/12 05:44:44;;;;;;;11.65;7.00;;;;;;;-145.69;nan;51792.88;5072972;28;20649;-82
2023/07/12 05:47:10;;;;;;;9.85;6.22;;;;;;;-145.69;nan;51842.38;5073458;28;20202;-82
2023/07/12 05:49:37;;;;;;;10.65;6.05;;;;;;;-145.69;nan;51802.78;5073482;28;20210;-81
2023/07/12 05:52:04;;;;;;;11.13;6.38;;;;;;;-145.69;nan;51800.81;5059385;28;20245;-81
2023/07/12 05:54:30;;;;;;;9.25;6.30;;;;;;;-145.69;nan;51818.63;5053327;28;20196;-81
2023/07/12 05:56:58;;;;;;;9.43;6.13;;;;;;;-145.69;nan;51769.13;5053569;28;20234;-81
2023/07/12 05:59:25;;;;;;;11.07;6.38;;;;;;;-145.69;nan;51783.00;5067615;28;20205;-81
2023/07/12 06:01:51;;;;;;;9.23;5.47;;;;;;;-145.69;nan;51759.22;5072980;28;20218;-81
2023/07/12 06:04:18;;;;;;;9.55;6.30;;;;;;;-145.69;nan;51786.94;5072873;28;20199;-82
2023/07/12 06:06:44;;;;;;;10.73;5.63;;;;;;;-145.69;nan;51783.00;5073252;28;20293;-81
2023/07/12 06:09:12;;;;;;;10.13;5.60;;;;;;;-145.69;nan;51808.72;5073151;28;20199;-81
2023/07/12 06:11:39;;;;;;;8.63;5.72;;;;;;;-145.69;nan;51786.94;5073070;28;20199;-81
2023/07/12 06:14:06;;;;;;;9.80;5.80;;;;;;;-145.69;nan;51798.81;5072649;28;20206;-81
2023/07/12 06:16:33;;;;;;;11.15;5.35;;;;;;;-145.69;nan;51822.59;5072991;28;20658;-82
2023/07/12 06:19:00;;;;;;;7.38;5.50;;;;;;;-145.69;nan;51783.00;5073179;28;20539;-82
2023/07/12 06:21:26;;;;;;;8.65;5.40;;;;;;;-145.69;nan;51765.16;5073212;28;20244;-83
2023/07/12 06:23:57;;;;;;;9.10;5.53;;;;;;;-145.69;nan;51779.03;5073053;28;20248;-83
2023/07/12 06:26:23;;;;;;;12.77;5.22;;;;;;;-145.69;nan;51810.72;5073447;28;20199;-83
2023/07/12 06:28:50;;;;;;;13.90;6.22;;;;;;;-145.69;nan;51802.78;5072232;28;20198;-81
2023/07/12 06:31:18;;;;;;;7.75;5.32;;;;;;;-145.69;nan;51830.50;5072346;28;20190;-82
2023/07/12 06:33:45;;;;;;;12.82;5.97;;;;;;;-145.69;nan;51806.75;5072544;28;20195;-82
2023/07/12 06:36:11;;;;;;;11.80;5.20;;;;;;;-145.69;nan;51812.69;5072806;28;20209;-82
2023/07/12 06:38:38;;;;;;;6.90;4.63;;;;;;;-145.69;nan;51779.03;5072779;28;20202;-82
2023/07/12 06:41:04;;;;;;;9.85;4.63;;;;;;;-145.69;nan;51775.06;5072813;28;20198;-82
2023/07/12 06:43:31;;;;;;;9.05;4.47;;;;;;;-145.69;nan;51747.34;5072306;28;20549;-82
2023/07/12 06:45:57;;;;;;;9.48;5.47;;;;;;;-145.69;nan;51739.44;5072913;28;20209;-81
2023/07/12 06:48:25;;;;;;;12.60;5.57;;;;;;;-145.69;nan;51741.41;5072471;28;20209;-82
2023/07/12 06:50:54;;;;;;;13.20;5.10;;;;;;;-145.69;nan;51767.16;5072553;28;20708;-81
2023/07/12 06:53:20;;;;;;;12.55;4.80;;;;;;;-145.69;nan;51779.03;5072614;28;20206;-81
2023/07/12 06:55:48;;;;;;;15.15;5.00;;;;;;;-145.69;nan;51771.09;5072042;28;20688;-81
2023/07/12 06:58:15;;;;;;;8.43;4.22;;;;;;;-145.69;nan;51775.06;5072813;28;20198;-82
2023/07/12 07:00:42;;;;;;;8.40;4.38;;;;;;;-145.69;nan;51759.22;5072526;28;20195;-82
2023/07/12 07:03:09;;;;;;;10.05;4.75;;;;;;;-145.69;nan;51777.03;5072394;28;20249;-83
2023/07/12 07:05:38;;;;;;;7.82;4.03;;;;;;;-145.69;nan;51771.09;5072673;28;20210;-83
2023/07/12 07:08:05;;;;;;;12.23;4.43;;;;;;;-145.69;nan;51767.16;5072407;28;20206;-83
2023/07/12 07:10:32;;;;;;;7.38;4.38;;;;;;;-145.69;nan;51777.03;5072036;28;20191;-82
2023/07/12 07:12:58;;;;;;;13.57;4.85;;;;;;;-145.69;nan;51781.00;5072137;28;20198;-82
2023/07/12 07:15:25;;;;;;;17.50;5.68;;;;;;;-145.69;nan;51761.22;5072548;28;20646;-82
2023/07/12 07:17:53;;;;;;;16.30;5.43;;;;;;;-145.69;nan;51761.22;5072564;28;20531;-82
2023/07/12 07:20:19;;;;;;;13.30;5.03;;;;;;;-145.69;nan;51769.13;5072609;28;20202;-82
2023/07/12 07:22:47;;;;;;;10.73;5.05;;;;;;;-145.69;nan;51725.56;5071940;28;20231;-82
2023/07/12 07:25:14;;;;;;;10.07;4.97;;;;;;;-145.69;nan;51775.06;5072342;28;20199;-82
2023/07/12 07:27:40;;;;;;;9.63;5.18;;;;;;;-145.69;nan;51775.06;5072114;28;20199;-81
2023/07/12 07:30:08;;;;;;;9.05;5.03;;;;;;;-145.69;nan;51775.06;5072485;28;20202;-82
2023/07/12 07:32:34;;;;;;;7.75;4.45;;;;;;;-145.69;nan;51775.06;5071484;28;20191;-82
2023/07/12 07:35:01;;;;;;;7.35;4.53;;;;;;;-145.69;nan;51759.22;5072147;28;20195;-81
2023/07/12 07:37:27;;;;;;;9.02;5.05;;;;;;;-145.69;nan;51751.31;5072204;28;20202;-82
2023/07/12 07:39:55;;;;;;;8.10;5.55;;;;;;;-145.69;nan;51749.31;5072344;28;20214;-81
2023/07/12 07:42:21;;;;;;;9.57;5.70;;;;;;;-145.69;nan;51755.25;5072332;28;20235;-82
2023/07/12 07:44:48;;;;;;;8.07;5.32;;;;;;;-145.69;nan;51761.22;5074376;28;20203;-82
2023/07/12 07:47:15;;;;;;;14.27;7.40;;;;;;;-145.69;nan;51763.19;5075886;28;20198;-81
2023/07/12 07:49:41;;;;;;;10.35;5.80;;;;;;;-145.69;nan;51751.31;5075895;28;20199;-82
2023/07/12 07:52:08;;;;;;;9.88;5.82;;;;;;;-145.69;nan;51733.50;5075505;28;20325;-82
2023/07/12 07:54:35;;;;;;;12.32;4.93;;;;;;;-145.69;nan;51723.59;5061380;28;20208;-82
2023/07/12 07:57:03;;;;;;;8.68;4.63;;;;;;;-145.69;nan;51761.22;5055889;28;20203;-82
2023/07/12 07:59:30;;;;;;;9.18;5.07;;;;;;;-145.69;nan;51733.50;5071491;28;20200;-83
2023/07/12 08:01:56;;;;;;;11.07;5.82;;;;;;;-145.69;nan;51731.50;5075345;28;20233;-82
2023/07/12 08:04:23;;;;;;;13.95;5.13;;;;;;;-145.69;nan;51727.53;5066205;28;20191;-82
2023/07/12 08:06:49;;;;;;;9.68;5.05;;;;;;;-145.69;nan;51715.66;5075001;28;20198;-82
2023/07/12 08:09:17;;;;;;;9.05;5.72;;;;;;;-145.69;nan;51721.59;5074964;28;20499;-82
2023/07/12 08:11:43;;;;;;;9.00;5.32;;;;;;;-145.69;nan;51711.72;5075392;28;20214;-81
2023/07/12 08:14:11;;;;;;;8.05;4.78;;;;;;;-145.69;nan;51747.34;5075525;28;20584;-83
2023/07/12 08:16:37;;;;;;;6.88;4.38;;;;;;;-145.69;nan;51701.81;5075418;28;20201;-83
2023/07/12 08:19:04;;;;;;;7.93;4.55;;;;;;;-145.69;nan;51715.66;5075389;28;20195;-84
2023/07/12 08:21:32;;;;;;;12.10;4.60;;;;;;;-145.69;nan;51723.59;5075316;28;20202;-83
2023/07/12 08:23:58;;;;;;;9.07;4.15;;;;;;;-145.69;nan;51699.81;5075220;28;20230;-83
2023/07/12 08:26:25;;;;;;;8.63;4.63;;;;;;;-145.69;nan;51699.81;5075372;28;20213;-82
2023/07/12 08:28:54;;;;;;;7.50;3.97;;;;;;;-145.69;nan;51711.72;5075103;28;20210;-82
2023/07/12 08:31:22;;;;;;;6.70;4.13;;;;;;;-145.69;nan;51733.50;5075122;28;20606;-82
2023/07/12 08:33:49;;;;;;;8.07;3.95;;;;;;;-145.69;nan;51727.53;5074364;28;20553;-83
2023/07/12 08:36:16;;;;;;;5.80;2.90;;;;;;;-145.69;nan;51691.91;5074978;28;20743;-83
2023/07/12 08:38:42;;;;;;;7.15;3.88;;;;;;;-145.69;nan;51687.94;5074739;28;20203;-81
2023/07/12 08:41:15;;;;;;;6.72;4.18;;;;;;;-145.69;nan;51683.97;5074943;28;20641;-83
2023/07/12 08:43:44;;;;;;;11.65;3.95;;;;;;;-145.69;nan;51697.84;5074451;28;20222;-83
2023/07/12 08:46:16;;;;;;;13.55;3.88;;;;;;;-145.69;nan;51695.88;5074654;28;20552;-83
2023/07/12 08:48:45;;;;;;;8.18;4.00;;;;;;;-145.69;nan;51691.91;5074303;28;20206;-82
2023/07/12 08:51:16;;;;;;;15.50;4.43;;;;;;;-145.69;nan;51707.75;5074914;28;20237;-82
2023/07/12 08:53:42;;;;;;;11.35;4.18;;;;;;;-145.69;nan;51693.88;5074056;28;20207;-82
2023/07/12 08:56:14;;;;;;;10.63;3.80;;;;;;;-145.69;nan;51707.75;5073418;28;20210;-82
2023/07/12 08:58:44;;;;;;;7.70;3.97;;;;;;;-145.69;nan;51695.88;5074454;28;20202;-84
2023/07/12 09:01:15;;;;;;;10.18;3.45;;;;;;;-145.69;nan;51695.88;5073670;28;20202;-83
2023/07/12 09:03:42;;;;;;;9.18;4.00;;;;;;;-145.69;nan;51715.66;5072684;28;20226;-84
2023/07/12 09:06:14;;;;;;;8.82;3.53;;;;;;;-145.69;nan;51685.97;5072754;28;20199;-83
2023/07/12 09:08:44;;;;;;;8.15;3.97;;;;;;;-145.69;nan;51701.81;5072873;28;20686;-84
2023/07/12 09:11:16;;;;;;;7.38;4.18;;;;;;;-145.69;nan;51743.38;5072831;28;20199;-82
2023/07/12 09:13:46;;;;;;;12.82;3.90;;;;;;;-145.69;nan;51715.66;5072707;28;20206;-84
2023/07/12 09:16:24;;;;;;;10.27;3.97;;;;;;;-145.69;nan;51713.69;5073290;28;20225;-83
2023/07/12 09:18:54;;;;;;;7.43;3.50;;;;;;;-145.69;nan;51723.59;5073959;28;20199;-83
2023/07/12 09:21:25;;;;;;;15.05;3.90;;;;;;;-145.69;nan;51703.78;5074100;28;20203;-84
2023/07/12 09:23:53;;;;;;;9.48;4.25;;;;;;;-145.69;nan;51719.63;5073613;28;20226;-84
2023/07/12 09:26:23;;;;;;;8.23;3.60;;;;;;;-145.69;nan;51715.66;5074339;28;20250;-84
2023/07/12 09:28:50;;;;;;;10.82;3.70;;;;;;;-145.69;nan;51705.75;5073953;28;20214;-83
2023/07/12 09:31:31;;;;;;;6.85;4.18;;;;;;;-145.69;nan;51715.66;5074076;28;20240;-84
2023/07/12 09:34:03;;;;;;;8.02;3.83;;;;;;;-145.69;nan;51668.16;5073563;28;20194;-83
2023/07/12 09:36:31;;;;;;;12.93;3.92;;;;;;;-145.69;nan;51699.81;5074089;28;20203;-83
2023/07/12 09:39:01;;;;;;;8.60;3.10;;;;;;;-145.69;nan;51666.16;5073803;28;20206;-83
2023/07/12 09:41:28;;;;;;;9.25;4.10;;;;;;;-145.69;nan;51680.03;5073565;28;20230;-82
2023/07/12 09:43:57;;;;;;;10.52;3.78;;;;;;;-145.69;nan;51652.31;5073574;28;20227;-83
2023/07/12 09:46:37;;;;;;;6.78;3.53;;;;;;;-145.69;nan;51648.34;5055902;28;20231;-81
2023/07/12 09:49:10;;;;;;;8.10;3.78;;;;;;;-145.69;nan;51668.16;5053750;28;20210;-83
2023/07/12 09:51:47;;;;;;;7.95;4.05;;;;;;;-145.69;nan;51638.44;5053492;28;20242;-84
2023/07/12 09:54:27;;;;;;;6.75;3.50;;;;;;;-145.69;nan;51676.06;5069259;28;20205;-83
2023/07/12 09:56:56;;;;;;;7.32;3.85;;;;;;;-145.69;nan;51648.34;5073484;28;20202;-82
2023/07/12 09:59:38;;;;;;;9.55;3.92;;;;;;;-145.69;nan;51648.34;5073498;28;20205;-81
2023/07/12 10:02:16;;;;;;;8.63;3.97;;;;;;;-145.69;nan;51624.59;5073419;28;20203;-83
2023/07/12 10:04:48;;;;;;;10.05;3.60;;;;;;;-145.69;nan;51620.63;5067409;28;20205;-81
2023/07/12 10:07:29;;;;;;;5.38;3.53;;;;;;;-145.69;nan;51676.06;5072884;28;20203;-82
2023/07/12 10:09:57;;;;;;;11.30;4.05;;;;;;;-145.69;nan;51664.19;5072968;28;20206;-83
2023/07/12 10:12:31;;;;;;;10.27;4.07;;;;;;;-145.69;nan;51683.97;5072137;28;20187;-83
2023/07/12 10:14:58;;;;;;;8.57;3.53;;;;;;;-145.69;nan;51701.81;5072982;28;20190;-83
2023/07/12 10:17:32;;;;;;;9.80;3.90;;;;;;;-145.69;nan;51687.94;5072945;28;20187;-83
2023/07/12 10:20:00;;;;;;;5.88;3.13;;;;;;;-145.69;nan;51707.75;5073160;28;20284;-83
2023/07/12 10:22:32;;;;;;;8.68;3.70;;;;;;;-145.69;nan;51693.88;5073183;28;20194;-81
2023/07/12 10:25:01;;;;;;;8.27;4.18;;;;;;;-145.69;nan;51672.09;5073204;28;20213;-81
2023/07/12 10:27:33;;;;;;;8.00;3.35;;;;;;;-145.69;nan;51678.03;5073094;28;20676;-82
2023/07/12 10:30:04;;;;;;;7.57;3.75;;;;;;;-145.69;nan;51654.28;5072942;28;20683;-82
2023/07/12 10:32:38;;;;;;;12.70;3.97;;;;;;;-145.69;nan;51683.97;5072968;28;20405;-82
2023/07/12 10:35:14;;;;;;;6.95;3.40;;;;;;;-145.69;nan;51652.31;5072854;28;20244;-83
2023/07/12 10:37:47;;;;;;;6.88;3.30;;;;;;;-145.69;nan;51662.22;5073103;28;20202;-84
2023/07/12 10:40:18;;;;;;;6.53;3.63;;;;;;;-145.69;nan;51640.44;5072817;28;20199;-83
2023/07/12 10:42:50;;;;;;;8.82;3.67;;;;;;;-145.69;nan;51632.50;5072003;28;20226;-83
2023/07/12 10:45:25;;;;;;;6.55;3.10;;;;;;;-145.69;nan;51656.25;5072416;28;20787;-83
2023/07/12 10:47:54;;;;;;;6.25;3.28;;;;;;;-145.69;nan;51683.97;5072040;28;20561;-82
2023/07/12 10:50:23;;;;;;;5.32;3.55;;;;;;;-145.69;nan;51648.34;5072236;28;20661;-82
2023/07/12 10:53:05;;;;;;;10.98;3.85;;;;;;;-145.69;nan;51693.88;5072643;28;20207;-82
2023/07/12 10:55:47;;;;;;;9.43;3.65;;;;;;;-145.69;nan;51672.09;5072229;28;20222;-82
2023/07/12 10:58:29;;;;;;;7.82;3.70;;;;;;;-145.69;nan;51685.97;5072534;28;20202;-82
2023/07/12 11:00:58;;;;;;;7.82;3.50;;;;;;;-145.69;nan;51664.19;5072648;28;20191;-83
2023/07/12 11:03:41;;;;;;;8.65;3.53;;;;;;;-145.69;nan;51674.09;5071962;28;20219;-83
2023/07/12 11:06:23;;;;;;;5.30;3.38;;;;;;;-145.69;nan;51695.88;5072563;28;20202;-83
2023/07/12 11:09:03;;;;;;;5.95;2.92;;;;;;;-145.69;nan;51699.81;5072711;28;20202;-82
2023/07/12 11:11:44;;;;;;;6.45;3.30;;;;;;;-145.69;nan;51723.59;5071912;28;20202;-83
2023/07/12 11:14:25;;;;;;;7.03;3.58;;;;;;;-145.69;nan;51717.66;5072264;28;20207;-83
2023/07/12 11:17:10;;;;;;;6.28;3.50;;;;;;;-145.69;nan;51711.72;5071756;28;20198;-82
2023/07/12 11:19:45;;;;;;;10.00;4.22;;;;;;;-145.69;nan;51695.88;5068403;28;20202;-82
2023/07/12 11:22:14;;;;;;;8.48;3.20;;;;;;;-145.69;nan;51695.88;5075913;28;20202;-83
2023/07/12 11:24:52;;;;;;;9.18;3.50;;;;;;;-145.69;nan;51695.88;5075860;28;20305;-82
2023/07/12 11:27:42;;;;;;;10.23;3.40;;;;;;;-145.69;nan;51680.03;5076473;28;20202;-83
2023/07/12 11:30:23;;;;;;;7.55;3.72;;;;;;;-145.69;nan;51656.25;5074239;28;20725;-83
2023/07/12 11:32:53;;;;;;;5.88;3.60;;;;;;;-145.69;nan;51656.25;5076135;28;20645;-82
2023/07/12 11:35:24;;;;;;;7.35;3.50;;;;;;;-145.69;nan;51618.66;5076045;28;20724;-82